Elwood, Indiana
Current Conditions -  °F | °C
As of 1:15 PM on Friday 28 Nov 2014 (Local Time) from KOKK Reporting Station
Clear Clear  
Wind Chill: 21°   Ceiling: Unl
Heat Index: 30°   Visibility: 10mi
Dew Point: 18°   Wind: 10mph
Humidity: 60%   Direction: 190°S
Pressure: 30.21"   Gusts: NA
Location:  40.28°N, 85.82°W
Report Text: KOKK 281815Z AUTO 19009KT 10SM CLR M01/M08 A3021 RMK AO1
Loading
Personal Weather Stations






























Interactive Weather Map New forecast layout! Learn more

10-Day Weather Forecast

Advertisements
Track Severe Weather on mobile